sensor_id;sensor_type;location;lat;lon;timestamp;P1;durP1;ratioP1;P2;durP2;ratioP2
23988;SDS011;12202;52.136;5.592;2022-11-23T00:01:46;38.72;;;20.35;;
23988;SDS011;12202;52.136;5.592;2022-11-23T00:04:13;41.53;;;20.60;;
23988;SDS011;12202;52.136;5.592;2022-11-23T00:06:39;51.47;;;23.08;;
23988;SDS011;12202;52.136;5.592;2022-11-23T00:09:05;48.72;;;22.90;;
23988;SDS011;12202;52.136;5.592;2022-11-23T00:11:32;44.33;;;23.15;;
23988;SDS011;12202;52.136;5.592;2022-11-23T00:13:58;52.63;;;24.25;;
23988;SDS011;12202;52.136;5.592;2022-11-23T00:16:25;49.65;;;24.73;;
23988;SDS011;12202;52.136;5.592;2022-11-23T00:18:52;53.08;;;24.27;;
23988;SDS011;12202;52.136;5.592;2022-11-23T00:21:19;55.92;;;25.88;;
23988;SDS011;12202;52.136;5.592;2022-11-23T00:23:45;47.35;;;25.55;;
23988;SDS011;12202;52.136;5.592;2022-11-23T00:26:11;58.55;;;26.17;;
23988;SDS011;12202;52.136;5.592;2022-11-23T00:28:38;57.35;;;26.50;;
23988;SDS011;12202;52.136;5.592;2022-11-23T00:31:11;50.20;;;25.33;;
23988;SDS011;12202;52.136;5.592;2022-11-23T00:33:37;51.88;;;26.95;;
23988;SDS011;12202;52.136;5.592;2022-11-23T00:36:04;62.83;;;27.58;;
23988;SDS011;12202;52.136;5.592;2022-11-23T00:38:31;51.72;;;26.70;;
23988;SDS011;12202;52.136;5.592;2022-11-23T00:40:58;45.83;;;26.48;;
23988;SDS011;12202;52.136;5.592;2022-11-23T00:43:24;62.22;;;28.77;;
23988;SDS011;12202;52.136;5.592;2022-11-23T00:46:00;58.53;;;28.40;;
23988;SDS011;12202;52.136;5.592;2022-11-23T00:48:26;58.80;;;29.50;;
23988;SDS011;12202;52.136;5.592;2022-11-23T00:50:52;63.88;;;29.67;;
23988;SDS011;12202;52.136;5.592;2022-11-23T00:53:18;62.80;;;30.75;;
23988;SDS011;12202;52.136;5.592;2022-11-23T00:55:49;62.83;;;29.90;;
23988;SDS011;12202;52.136;5.592;2022-11-23T00:58:15;64.28;;;30.17;;
23988;SDS011;12202;52.136;5.592;2022-11-23T01:00:41;70.68;;;30.05;;
23988;SDS011;12202;52.136;5.592;2022-11-23T01:03:08;63.45;;;32.15;;
23988;SDS011;12202;52.136;5.592;2022-11-23T01:05:37;66.30;;;31.92;;
23988;SDS011;12202;52.136;5.592;2022-11-23T01:08:04;63.13;;;28.65;;
23988;SDS011;12202;52.136;5.592;2022-11-23T01:10:30;57.85;;;30.13;;
23988;SDS011;12202;52.136;5.592;2022-11-23T01:12:57;70.63;;;31.60;;
23988;SDS011;12202;52.136;5.592;2022-11-23T01:15:23;66.10;;;30.73;;
23988;SDS011;12202;52.136;5.592;2022-11-23T01:17:49;66.80;;;31.17;;
23988;SDS011;12202;52.136;5.592;2022-11-23T01:20:16;67.65;;;32.20;;
23988;SDS011;12202;52.136;5.592;2022-11-23T01:22:42;60.78;;;30.48;;
23988;SDS011;12202;52.136;5.592;2022-11-23T01:25:08;62.72;;;31.63;;
23988;SDS011;12202;52.136;5.592;2022-11-23T01:27:34;67.72;;;31.85;;
23988;SDS011;12202;52.136;5.592;2022-11-23T01:30:00;62.67;;;31.35;;
23988;SDS011;12202;52.136;5.592;2022-11-23T01:32:26;69.30;;;32.42;;
23988;SDS011;12202;52.136;5.592;2022-11-23T01:34:52;65.82;;;30.80;;
23988;SDS011;12202;52.136;5.592;2022-11-23T01:37:18;62.47;;;31.90;;
23988;SDS011;12202;52.136;5.592;2022-11-23T01:39:44;60.20;;;30.75;;
23988;SDS011;12202;52.136;5.592;2022-11-23T01:42:10;70.43;;;33.00;;
23988;SDS011;12202;52.136;5.592;2022-11-23T01:44:36;59.58;;;31.58;;
23988;SDS011;12202;52.136;5.592;2022-11-23T01:47:06;62.08;;;30.65;;
23988;SDS011;12202;52.136;5.592;2022-11-23T01:49:40;61.75;;;30.65;;
23988;SDS011;12202;52.136;5.592;2022-11-23T01:52:11;69.63;;;28.60;;
23988;SDS011;12202;52.136;5.592;2022-11-23T01:54:43;64.30;;;28.70;;
23988;SDS011;12202;52.136;5.592;2022-11-23T01:57:11;62.13;;;29.50;;
23988;SDS011;12202;52.136;5.592;2022-11-23T01:59:41;58.25;;;28.60;;
23988;SDS011;12202;52.136;5.592;2022-11-23T02:02:07;62.00;;;29.70;;
23988;SDS011;12202;52.136;5.592;2022-11-23T02:04:34;68.05;;;29.10;;
23988;SDS011;12202;52.136;5.592;2022-11-23T02:07:02;64.10;;;28.88;;
23988;SDS011;12202;52.136;5.592;2022-11-23T02:09:30;62.45;;;28.85;;
23988;SDS011;12202;52.136;5.592;2022-11-23T02:11:56;61.95;;;27.67;;
23988;SDS011;12202;52.136;5.592;2022-11-23T02:14:22;60.25;;;25.63;;
23988;SDS011;12202;52.136;5.592;2022-11-23T02:16:48;61.25;;;27.02;;
23988;SDS011;12202;52.136;5.592;2022-11-23T02:19:17;57.22;;;26.70;;
23988;SDS011;12202;52.136;5.592;2022-11-23T02:21:45;52.40;;;24.67;;
23988;SDS011;12202;52.136;5.592;2022-11-23T02:27:15;59.88;;;24.00;;
23988;SDS011;12202;52.136;5.592;2022-11-23T02:29:41;53.08;;;22.92;;
23988;SDS011;12202;52.136;5.592;2022-11-23T02:32:07;51.28;;;22.60;;
23988;SDS011;12202;52.136;5.592;2022-11-23T02:34:33;47.97;;;21.30;;
23988;SDS011;12202;52.136;5.592;2022-11-23T02:36:59;42.22;;;22.65;;
23988;SDS011;12202;52.136;5.592;2022-11-23T02:39:29;42.08;;;19.88;;
23988;SDS011;12202;52.136;5.592;2022-11-23T02:41:55;49.85;;;22.25;;
23988;SDS011;12202;52.136;5.592;2022-11-23T02:44:28;54.13;;;22.70;;
23988;SDS011;12202;52.136;5.592;2022-11-23T02:46:56;48.05;;;22.17;;
23988;SDS011;12202;52.136;5.592;2022-11-23T02:49:23;52.00;;;24.35;;
23988;SDS011;12202;52.136;5.592;2022-11-23T02:51:49;49.10;;;21.27;;
23988;SDS011;12202;52.136;5.592;2022-11-23T02:54:15;46.72;;;20.35;;
23988;SDS011;12202;52.136;5.592;2022-11-23T02:56:40;43.65;;;21.27;;
23988;SDS011;12202;52.136;5.592;2022-11-23T02:59:07;42.15;;;20.13;;
23988;SDS011;12202;52.136;5.592;2022-11-23T03:01:33;40.97;;;17.67;;
23988;SDS011;12202;52.136;5.592;2022-11-23T03:03:59;38.35;;;18.75;;
23988;SDS011;12202;52.136;5.592;2022-11-23T03:06:25;35.22;;;17.38;;
23988;SDS011;12202;52.136;5.592;2022-11-23T03:08:51;41.25;;;20.73;;
23988;SDS011;12202;52.136;5.592;2022-11-23T03:11:17;33.58;;;17.42;;
23988;SDS011;12202;52.136;5.592;2022-11-23T03:13:43;48.17;;;16.73;;
23988;SDS011;12202;52.136;5.592;2022-11-23T03:16:09;37.60;;;17.58;;
23988;SDS011;12202;52.136;5.592;2022-11-23T03:18:35;42.33;;;18.70;;
23988;SDS011;12202;52.136;5.592;2022-11-23T03:21:02;35.33;;;15.57;;
23988;SDS011;12202;52.136;5.592;2022-11-23T03:23:28;38.85;;;16.48;;
23988;SDS011;12202;52.136;5.592;2022-11-23T03:25:55;33.35;;;15.65;;
23988;SDS011;12202;52.136;5.592;2022-11-23T03:28:21;35.10;;;16.08;;
23988;SDS011;12202;52.136;5.592;2022-11-23T03:30:47;34.70;;;15.82;;
23988;SDS011;12202;52.136;5.592;2022-11-23T03:33:13;33.58;;;16.35;;
23988;SDS011;12202;52.136;5.592;2022-11-23T03:35:39;30.40;;;14.63;;
23988;SDS011;12202;52.136;5.592;2022-11-23T03:38:05;29.60;;;13.75;;
23988;SDS011;12202;52.136;5.592;2022-11-23T03:40:31;28.17;;;13.50;;
23988;SDS011;12202;52.136;5.592;2022-11-23T03:42:57;37.15;;;13.65;;
23988;SDS011;12202;52.136;5.592;2022-11-23T03:45:23;36.58;;;13.55;;
23988;SDS011;12202;52.136;5.592;2022-11-23T03:47:49;27.20;;;13.45;;
23988;SDS011;12202;52.136;5.592;2022-11-23T03:50:14;27.35;;;13.05;;
23988;SDS011;12202;52.136;5.592;2022-11-23T03:52:40;24.42;;;12.10;;
23988;SDS011;12202;52.136;5.592;2022-11-23T03:55:06;30.52;;;13.32;;
23988;SDS011;12202;52.136;5.592;2022-11-23T03:57:32;24.38;;;11.05;;
23988;SDS011;12202;52.136;5.592;2022-11-23T03:59:58;26.65;;;11.75;;
23988;SDS011;12202;52.136;5.592;2022-11-23T04:02:25;27.80;;;12.18;;
23988;SDS011;12202;52.136;5.592;2022-11-23T04:04:51;28.20;;;11.52;;
23988;SDS011;12202;52.136;5.592;2022-11-23T04:07:17;32.92;;;11.13;;
23988;SDS011;12202;52.136;5.592;2022-11-23T04:09:43;30.23;;;12.32;;
23988;SDS011;12202;52.136;5.592;2022-11-23T04:12:09;22.83;;;10.93;;
23988;SDS011;12202;52.136;5.592;2022-11-23T04:14:35;29.30;;;11.45;;
23988;SDS011;12202;52.136;5.592;2022-11-23T04:17:01;26.08;;;11.93;;
23988;SDS011;12202;52.136;5.592;2022-11-23T04:19:27;27.05;;;11.93;;
23988;SDS011;12202;52.136;5.592;2022-11-23T04:21:54;25.20;;;11.82;;
23988;SDS011;12202;52.136;5.592;2022-11-23T04:24:20;28.85;;;11.82;;
23988;SDS011;12202;52.136;5.592;2022-11-23T04:26:46;36.28;;;13.40;;
23988;SDS011;12202;52.136;5.592;2022-11-23T04:29:12;31.98;;;12.20;;
23988;SDS011;12202;52.136;5.592;2022-11-23T04:31:38;27.70;;;11.00;;
23988;SDS011;12202;52.136;5.592;2022-11-23T04:34:04;31.50;;;11.48;;
23988;SDS011;12202;52.136;5.592;2022-11-23T04:36:30;34.00;;;15.20;;
23988;SDS011;12202;52.136;5.592;2022-11-23T04:38:57;37.53;;;12.80;;
23988;SDS011;12202;52.136;5.592;2022-11-23T04:41:22;33.47;;;13.35;;
23988;SDS011;12202;52.136;5.592;2022-11-23T04:43:49;31.85;;;11.20;;
23988;SDS011;12202;52.136;5.592;2022-11-23T04:46:15;26.58;;;11.55;;
23988;SDS011;12202;52.136;5.592;2022-11-23T04:48:41;33.97;;;12.40;;
23988;SDS011;12202;52.136;5.592;2022-11-23T04:51:07;26.55;;;11.05;;
23988;SDS011;12202;52.136;5.592;2022-11-23T04:53:33;30.63;;;12.38;;
23988;SDS011;12202;52.136;5.592;2022-11-23T04:55:59;35.67;;;12.52;;
23988;SDS011;12202;52.136;5.592;2022-11-23T04:58:25;39.45;;;12.60;;
23988;SDS011;12202;52.136;5.592;2022-11-23T05:00:51;34.65;;;12.02;;
23988;SDS011;12202;52.136;5.592;2022-11-23T05:03:17;27.65;;;11.30;;
23988;SDS011;12202;52.136;5.592;2022-11-23T05:05:43;30.60;;;12.10;;
23988;SDS011;12202;52.136;5.592;2022-11-23T05:08:09;32.70;;;12.30;;
23988;SDS011;12202;52.136;5.592;2022-11-23T05:10:36;40.20;;;12.35;;
23988;SDS011;12202;52.136;5.592;2022-11-23T05:13:02;38.92;;;12.85;;
23988;SDS011;12202;52.136;5.592;2022-11-23T05:15:28;38.47;;;10.48;;
23988;SDS011;12202;52.136;5.592;2022-11-23T05:17:59;35.85;;;11.63;;
23988;SDS011;12202;52.136;5.592;2022-11-23T05:20:25;33.53;;;10.73;;
23988;SDS011;12202;52.136;5.592;2022-11-23T05:22:51;30.88;;;10.43;;
23988;SDS011;12202;52.136;5.592;2022-11-23T05:25:17;36.42;;;10.57;;
23988;SDS011;12202;52.136;5.592;2022-11-23T05:27:43;29.55;;;10.05;;
23988;SDS011;12202;52.136;5.592;2022-11-23T05:30:09;28.02;;;10.80;;
23988;SDS011;12202;52.136;5.592;2022-11-23T05:32:35;29.42;;;9.57;;
23988;SDS011;12202;52.136;5.592;2022-11-23T05:35:01;29.45;;;11.02;;
23988;SDS011;12202;52.136;5.592;2022-11-23T05:37:27;23.20;;;9.65;;
23988;SDS011;12202;52.136;5.592;2022-11-23T05:39:52;34.35;;;10.68;;
23988;SDS011;12202;52.136;5.592;2022-11-23T05:42:20;32.60;;;10.05;;
23988;SDS011;12202;52.136;5.592;2022-11-23T05:44:46;32.25;;;9.65;;
23988;SDS011;12202;52.136;5.592;2022-11-23T05:47:12;28.20;;;10.40;;
23988;SDS011;12202;52.136;5.592;2022-11-23T05:49:38;25.50;;;8.93;;
23988;SDS011;12202;52.136;5.592;2022-11-23T05:52:04;24.90;;;9.63;;
23988;SDS011;12202;52.136;5.592;2022-11-23T05:54:30;38.25;;;10.43;;
23988;SDS011;12202;52.136;5.592;2022-11-23T05:56:56;23.63;;;9.80;;
23988;SDS011;12202;52.136;5.592;2022-11-23T05:59:22;31.17;;;8.60;;
23988;SDS011;12202;52.136;5.592;2022-11-23T06:01:48;26.77;;;8.75;;
23988;SDS011;12202;52.136;5.592;2022-11-23T06:04:14;27.52;;;10.23;;
23988;SDS011;12202;52.136;5.592;2022-11-23T06:06:39;25.75;;;8.63;;
23988;SDS011;12202;52.136;5.592;2022-11-23T06:09:05;26.40;;;9.95;;
23988;SDS011;12202;52.136;5.592;2022-11-23T06:11:31;29.50;;;10.77;;
23988;SDS011;12202;52.136;5.592;2022-11-23T06:13:57;26.45;;;9.63;;
23988;SDS011;12202;52.136;5.592;2022-11-23T06:16:23;29.05;;;8.82;;
23988;SDS011;12202;52.136;5.592;2022-11-23T06:18:49;26.40;;;10.15;;
23988;SDS011;12202;52.136;5.592;2022-11-23T06:21:15;25.58;;;9.32;;
23988;SDS011;12202;52.136;5.592;2022-11-23T06:23:41;31.63;;;9.15;;
23988;SDS011;12202;52.136;5.592;2022-11-23T06:26:07;28.60;;;9.68;;
23988;SDS011;12202;52.136;5.592;2022-11-23T06:28:33;33.70;;;10.15;;
23988;SDS011;12202;52.136;5.592;2022-11-23T06:31:01;31.73;;;9.98;;
23988;SDS011;12202;52.136;5.592;2022-11-23T06:33:28;35.42;;;9.98;;
23988;SDS011;12202;52.136;5.592;2022-11-23T06:35:54;27.42;;;8.30;;
23988;SDS011;12202;52.136;5.592;2022-11-23T06:38:21;31.40;;;9.02;;
23988;SDS011;12202;52.136;5.592;2022-11-23T06:40:47;28.30;;;7.60;;
23988;SDS011;12202;52.136;5.592;2022-11-23T06:43:13;25.90;;;7.90;;
23988;SDS011;12202;52.136;5.592;2022-11-23T06:45:39;31.70;;;9.55;;
23988;SDS011;12202;52.136;5.592;2022-11-23T06:48:05;23.23;;;7.13;;
23988;SDS011;12202;52.136;5.592;2022-11-23T06:50:31;28.23;;;8.15;;
23988;SDS011;12202;52.136;5.592;2022-11-23T06:52:57;30.73;;;7.30;;
23988;SDS011;12202;52.136;5.592;2022-11-23T06:55:23;31.67;;;8.02;;
23988;SDS011;12202;52.136;5.592;2022-11-23T06:57:49;29.40;;;7.32;;
23988;SDS011;12202;52.136;5.592;2022-11-23T07:00:16;29.52;;;7.10;;
23988;SDS011;12202;52.136;5.592;2022-11-23T07:02:42;36.95;;;7.55;;
23988;SDS011;12202;52.136;5.592;2022-11-23T07:05:08;21.13;;;7.35;;
23988;SDS011;12202;52.136;5.592;2022-11-23T07:07:34;23.58;;;6.38;;
23988;SDS011;12202;52.136;5.592;2022-11-23T07:10:00;26.90;;;6.55;;
23988;SDS011;12202;52.136;5.592;2022-11-23T07:12:26;28.38;;;5.95;;
23988;SDS011;12202;52.136;5.592;2022-11-23T07:14:52;24.20;;;6.82;;
23988;SDS011;12202;52.136;5.592;2022-11-23T07:17:18;25.67;;;5.60;;
23988;SDS011;12202;52.136;5.592;2022-11-23T07:19:44;24.20;;;5.30;;
23988;SDS011;12202;52.136;5.592;2022-11-23T07:22:10;25.55;;;6.70;;
23988;SDS011;12202;52.136;5.592;2022-11-23T07:24:36;32.15;;;5.78;;
23988;SDS011;12202;52.136;5.592;2022-11-23T07:27:02;26.35;;;5.53;;
23988;SDS011;12202;52.136;5.592;2022-11-23T07:29:28;29.17;;;6.03;;
23988;SDS011;12202;52.136;5.592;2022-11-23T07:31:55;23.48;;;5.10;;
23988;SDS011;12202;52.136;5.592;2022-11-23T07:34:21;32.22;;;5.55;;
23988;SDS011;12202;52.136;5.592;2022-11-23T07:36:47;19.83;;;4.68;;
23988;SDS011;12202;52.136;5.592;2022-11-23T07:39:13;20.38;;;4.70;;
23988;SDS011;12202;52.136;5.592;2022-11-23T07:41:40;24.40;;;4.30;;
23988;SDS011;12202;52.136;5.592;2022-11-23T07:44:06;20.50;;;5.18;;
23988;SDS011;12202;52.136;5.592;2022-11-23T07:46:32;32.28;;;6.18;;
23988;SDS011;12202;52.136;5.592;2022-11-23T07:48:58;27.65;;;4.63;;
23988;SDS011;12202;52.136;5.592;2022-11-23T07:51:26;31.10;;;5.03;;
23988;SDS011;12202;52.136;5.592;2022-11-23T07:53:52;28.73;;;6.70;;
23988;SDS011;12202;52.136;5.592;2022-11-23T07:56:19;24.70;;;7.72;;
23988;SDS011;12202;52.136;5.592;2022-11-23T07:58:45;26.95;;;5.10;;
23988;SDS011;12202;52.136;5.592;2022-11-23T08:01:16;22.40;;;5.25;;
23988;SDS011;12202;52.136;5.592;2022-11-23T08:03:44;24.60;;;5.22;;
23988;SDS011;12202;52.136;5.592;2022-11-23T08:06:11;28.42;;;5.88;;
23988;SDS011;12202;52.136;5.592;2022-11-23T08:08:37;37.80;;;7.22;;
23988;SDS011;12202;52.136;5.592;2022-11-23T08:11:04;22.08;;;5.32;;
23988;SDS011;12202;52.136;5.592;2022-11-23T08:13:30;37.67;;;6.85;;
23988;SDS011;12202;52.136;5.592;2022-11-23T08:15:56;31.63;;;5.32;;
23988;SDS011;12202;52.136;5.592;2022-11-23T08:18:22;23.83;;;5.18;;
23988;SDS011;12202;52.136;5.592;2022-11-23T08:20:48;24.95;;;5.80;;
23988;SDS011;12202;52.136;5.592;2022-11-23T08:23:14;22.05;;;5.20;;
23988;SDS011;12202;52.136;5.592;2022-11-23T08:25:40;32.70;;;5.38;;
23988;SDS011;12202;52.136;5.592;2022-11-23T08:28:06;30.02;;;6.07;;
23988;SDS011;12202;52.136;5.592;2022-11-23T08:30:33;30.20;;;6.38;;
23988;SDS011;12202;52.136;5.592;2022-11-23T08:33:05;28.35;;;6.38;;
23988;SDS011;12202;52.136;5.592;2022-11-23T08:35:36;24.40;;;4.75;;
23988;SDS011;12202;52.136;5.592;2022-11-23T08:38:03;26.02;;;4.75;;
23988;SDS011;12202;52.136;5.592;2022-11-23T08:40:29;29.05;;;5.25;;
23988;SDS011;12202;52.136;5.592;2022-11-23T08:42:57;38.60;;;7.30;;
23988;SDS011;12202;52.136;5.592;2022-11-23T08:45:25;29.52;;;7.00;;
23988;SDS011;12202;52.136;5.592;2022-11-23T08:47:51;31.38;;;5.15;;
23988;SDS011;12202;52.136;5.592;2022-11-23T08:50:17;28.48;;;5.55;;
23988;SDS011;12202;52.136;5.592;2022-11-23T08:52:43;41.70;;;5.60;;
23988;SDS011;12202;52.136;5.592;2022-11-23T08:55:09;32.72;;;6.85;;
23988;SDS011;12202;52.136;5.592;2022-11-23T08:57:36;38.78;;;6.65;;
23988;SDS011;12202;52.136;5.592;2022-11-23T09:00:02;29.65;;;5.90;;
23988;SDS011;12202;52.136;5.592;2022-11-23T09:02:29;42.42;;;5.80;;
23988;SDS011;12202;52.136;5.592;2022-11-23T09:04:55;32.55;;;5.32;;
23988;SDS011;12202;52.136;5.592;2022-11-23T09:07:21;26.63;;;4.78;;
23988;SDS011;12202;52.136;5.592;2022-11-23T09:09:47;36.83;;;5.43;;
23988;SDS011;12202;52.136;5.592;2022-11-23T09:12:13;32.03;;;5.13;;
23988;SDS011;12202;52.136;5.592;2022-11-23T09:14:39;28.83;;;5.18;;
23988;SDS011;12202;52.136;5.592;2022-11-23T09:17:05;26.00;;;5.15;;
23988;SDS011;12202;52.136;5.592;2022-11-23T09:19:31;23.15;;;5.15;;
23988;SDS011;12202;52.136;5.592;2022-11-23T09:21:57;25.48;;;5.63;;
23988;SDS011;12202;52.136;5.592;2022-11-23T09:24:23;28.85;;;3.65;;
23988;SDS011;12202;52.136;5.592;2022-11-23T09:26:52;35.20;;;5.35;;
23988;SDS011;12202;52.136;5.592;2022-11-23T09:29:19;26.05;;;4.28;;
23988;SDS011;12202;52.136;5.592;2022-11-23T09:31:47;27.75;;;4.45;;
23988;SDS011;12202;52.136;5.592;2022-11-23T09:34:13;25.58;;;3.72;;
23988;SDS011;12202;52.136;5.592;2022-11-23T09:36:39;33.90;;;4.88;;
23988;SDS011;12202;52.136;5.592;2022-11-23T09:39:04;24.83;;;4.15;;
23988;SDS011;12202;52.136;5.592;2022-11-23T09:47:01;30.88;;;4.65;;
23988;SDS011;12202;52.136;5.592;2022-11-23T09:49:32;20.98;;;4.05;;
23988;SDS011;12202;52.136;5.592;2022-11-23T09:52:06;20.67;;;4.72;;
23988;SDS011;12202;52.136;5.592;2022-11-23T09:54:35;29.10;;;5.90;;
23988;SDS011;12202;52.136;5.592;2022-11-23T09:57:02;18.58;;;3.42;;
23988;SDS011;12202;52.136;5.592;2022-11-23T10:01:55;23.08;;;4.07;;
23988;SDS011;12202;52.136;5.592;2022-11-23T10:04:21;21.27;;;3.70;;
23988;SDS011;12202;52.136;5.592;2022-11-23T10:06:51;24.38;;;4.82;;
23988;SDS011;12202;52.136;5.592;2022-11-23T10:19:25;21.73;;;4.18;;
23988;SDS011;12202;52.136;5.592;2022-11-23T10:24:41;16.33;;;3.45;;
23988;SDS011;12202;52.136;5.592;2022-11-23T10:27:15;27.90;;;4.85;;
23988;SDS011;12202;52.136;5.592;2022-11-23T10:29:42;22.10;;;4.43;;
23988;SDS011;12202;52.136;5.592;2022-11-23T10:37:22;15.50;;;3.50;;
23988;SDS011;12202;52.136;5.592;2022-11-23T10:39:51;26.70;;;4.70;;
23988;SDS011;12202;52.136;5.592;2022-11-23T10:45:02;25.10;;;4.78;;
23988;SDS011;12202;52.136;5.592;2022-11-23T10:49:58;26.48;;;4.03;;
23988;SDS011;12202;52.136;5.592;2022-11-23T10:52:26;22.73;;;4.20;;
23988;SDS011;12202;52.136;5.592;2022-11-23T10:54:53;21.25;;;4.85;;
23988;SDS011;12202;52.136;5.592;2022-11-23T11:00:00;31.15;;;5.22;;
23988;SDS011;12202;52.136;5.592;2022-11-23T11:02:27;34.72;;;5.70;;
23988;SDS011;12202;52.136;5.592;2022-11-23T11:05:47;21.00;;;4.32;;
23988;SDS011;12202;52.136;5.592;2022-11-23T11:07:39;17.83;;;4.25;;
23988;SDS011;12202;52.136;5.592;2022-11-23T11:10:05;21.30;;;4.50;;
23988;SDS011;12202;52.136;5.592;2022-11-23T11:12:35;27.73;;;5.53;;
23988;SDS011;12202;52.136;5.592;2022-11-23T11:15:15;26.73;;;4.80;;
23988;SDS011;12202;52.136;5.592;2022-11-23T11:17:43;22.02;;;4.32;;
23988;SDS011;12202;52.136;5.592;2022-11-23T11:20:30;32.90;;;7.38;;
23988;SDS011;12202;52.136;5.592;2022-11-23T11:23:15;17.45;;;4.85;;
23988;SDS011;12202;52.136;5.592;2022-11-23T11:25:41;17.13;;;4.45;;
23988;SDS011;12202;52.136;5.592;2022-11-23T11:36:08;17.30;;;3.45;;
23988;SDS011;12202;52.136;5.592;2022-11-23T11:38:36;28.45;;;4.63;;
23988;SDS011;12202;52.136;5.592;2022-11-23T11:41:06;16.73;;;3.30;;
23988;SDS011;12202;52.136;5.592;2022-11-23T11:43:46;21.20;;;4.05;;
23988;SDS011;12202;52.136;5.592;2022-11-23T11:46:24;17.58;;;3.45;;
23988;SDS011;12202;52.136;5.592;2022-11-23T11:49:14;15.75;;;3.47;;
23988;SDS011;12202;52.136;5.592;2022-11-23T11:51:54;17.17;;;3.60;;
23988;SDS011;12202;52.136;5.592;2022-11-23T11:54:33;18.33;;;3.38;;
23988;SDS011;12202;52.136;5.592;2022-11-23T11:57:02;16.13;;;2.92;;
23988;SDS011;12202;52.136;5.592;2022-11-23T12:01:58;15.50;;;3.22;;
23988;SDS011;12202;52.136;5.592;2022-11-23T12:04:46;17.92;;;3.28;;
23988;SDS011;12202;52.136;5.592;2022-11-23T12:07:20;16.40;;;2.97;;
23988;SDS011;12202;52.136;5.592;2022-11-23T12:09:51;19.23;;;3.28;;
23988;SDS011;12202;52.136;5.592;2022-11-23T12:12:20;17.00;;;3.08;;
23988;SDS011;12202;52.136;5.592;2022-11-23T12:14:46;18.60;;;3.65;;
23988;SDS011;12202;52.136;5.592;2022-11-23T12:19:44;13.77;;;3.00;;
23988;SDS011;12202;52.136;5.592;2022-11-23T12:23:16;11.65;;;3.45;;
23988;SDS011;12202;52.136;5.592;2022-11-23T12:27:39;22.05;;;3.80;;
23988;SDS011;12202;52.136;5.592;2022-11-23T12:33:03;11.73;;;2.45;;
23988;SDS011;12202;52.136;5.592;2022-11-23T12:38:12;14.38;;;2.70;;
23988;SDS011;12202;52.136;5.592;2022-11-23T12:40:53;19.08;;;2.80;;
23988;SDS011;12202;52.136;5.592;2022-11-23T12:43:21;16.75;;;3.17;;
23988;SDS011;12202;52.136;5.592;2022-11-23T12:48:30;13.75;;;4.30;;
23988;SDS011;12202;52.136;5.592;2022-11-23T12:59:13;17.02;;;3.25;;
23988;SDS011;12202;52.136;5.592;2022-11-23T13:01:44;12.13;;;3.10;;
23988;SDS011;12202;52.136;5.592;2022-11-23T13:04:27;15.40;;;3.33;;
23988;SDS011;12202;52.136;5.592;2022-11-23T13:09:40;18.90;;;3.63;;
23988;SDS011;12202;52.136;5.592;2022-11-23T13:12:20;14.45;;;2.67;;
23988;SDS011;12202;52.136;5.592;2022-11-23T13:22:14;8.10;;;2.00;;
23988;SDS011;12202;52.136;5.592;2022-11-23T13:25:00;16.63;;;3.08;;
23988;SDS011;12202;52.136;5.592;2022-11-23T13:33:23;11.40;;;2.33;;
23988;SDS011;12202;52.136;5.592;2022-11-23T13:40:28;9.07;;;2.40;;
23988;SDS011;12202;52.136;5.592;2022-11-23T13:43:02;16.63;;;2.55;;
23988;SDS011;12202;52.136;5.592;2022-11-23T13:45:32;14.48;;;3.17;;
23988;SDS011;12202;52.136;5.592;2022-11-23T13:50:29;10.32;;;2.28;;
23988;SDS011;12202;52.136;5.592;2022-11-23T13:52:56;7.38;;;1.90;;
23988;SDS011;12202;52.136;5.592;2022-11-23T13:55:27;11.48;;;2.42;;
23988;SDS011;12202;52.136;5.592;2022-11-23T14:05:56;8.93;;;2.42;;
23988;SDS011;12202;52.136;5.592;2022-11-23T14:08:24;16.65;;;3.97;;
23988;SDS011;12202;52.136;5.592;2022-11-23T14:10:50;16.20;;;3.70;;
23988;SDS011;12202;52.136;5.592;2022-11-23T14:13:18;13.73;;;4.47;;
23988;SDS011;12202;52.136;5.592;2022-11-23T14:15:50;7.60;;;2.58;;
23988;SDS011;12202;52.136;5.592;2022-11-23T14:23:52;12.68;;;3.53;;
23988;SDS011;12202;52.136;5.592;2022-11-23T14:26:29;8.43;;;3.65;;
23988;SDS011;12202;52.136;5.592;2022-11-23T14:41:57;20.33;;;3.72;;
23988;SDS011;12202;52.136;5.592;2022-11-23T14:44:25;15.57;;;3.40;;
23988;SDS011;12202;52.136;5.592;2022-11-23T14:47:02;16.20;;;3.42;;
23988;SDS011;12202;52.136;5.592;2022-11-23T14:49:28;13.60;;;4.30;;
23988;SDS011;12202;52.136;5.592;2022-11-23T14:51:55;22.73;;;3.83;;
23988;SDS011;12202;52.136;5.592;2022-11-23T14:54:22;19.83;;;4.25;;
23988;SDS011;12202;52.136;5.592;2022-11-23T14:56:51;16.85;;;6.00;;
23988;SDS011;12202;52.136;5.592;2022-11-23T14:59:22;19.27;;;4.80;;
23988;SDS011;12202;52.136;5.592;2022-11-23T15:01:50;24.50;;;5.00;;
23988;SDS011;12202;52.136;5.592;2022-11-23T15:04:20;17.00;;;4.40;;
23988;SDS011;12202;52.136;5.592;2022-11-23T15:06:48;13.95;;;3.85;;
23988;SDS011;12202;52.136;5.592;2022-11-23T15:09:35;15.13;;;3.38;;
23988;SDS011;12202;52.136;5.592;2022-11-23T15:12:20;14.95;;;3.28;;
23988;SDS011;12202;52.136;5.592;2022-11-23T15:14:47;9.82;;;4.03;;
23988;SDS011;12202;52.136;5.592;2022-11-23T15:17:15;14.43;;;4.80;;
23988;SDS011;12202;52.136;5.592;2022-11-23T15:19:41;15.10;;;3.70;;
23988;SDS011;12202;52.136;5.592;2022-11-23T15:22:13;13.60;;;5.07;;
23988;SDS011;12202;52.136;5.592;2022-11-23T15:24:41;12.82;;;3.50;;
23988;SDS011;12202;52.136;5.592;2022-11-23T15:27:09;18.20;;;3.38;;
23988;SDS011;12202;52.136;5.592;2022-11-23T15:29:48;6.82;;;3.70;;
23988;SDS011;12202;52.136;5.592;2022-11-23T15:32:31;13.02;;;3.42;;
23988;SDS011;12202;52.136;5.592;2022-11-23T15:34:59;12.77;;;5.03;;
23988;SDS011;12202;52.136;5.592;2022-11-23T15:37:25;13.13;;;4.60;;
23988;SDS011;12202;52.136;5.592;2022-11-23T15:39:52;23.60;;;5.55;;
23988;SDS011;12202;52.136;5.592;2022-11-23T15:42:23;21.27;;;4.53;;
23988;SDS011;12202;52.136;5.592;2022-11-23T15:44:51;15.50;;;5.03;;
23988;SDS011;12202;52.136;5.592;2022-11-23T15:47:26;15.77;;;5.32;;
23988;SDS011;12202;52.136;5.592;2022-11-23T15:50:01;16.15;;;4.80;;
23988;SDS011;12202;52.136;5.592;2022-11-23T15:52:32;18.02;;;4.55;;
23988;SDS011;12202;52.136;5.592;2022-11-23T15:55:06;9.88;;;4.15;;
23988;SDS011;12202;52.136;5.592;2022-11-23T15:57:33;12.05;;;4.65;;
23988;SDS011;12202;52.136;5.592;2022-11-23T16:00:03;13.27;;;4.50;;
23988;SDS011;12202;52.136;5.592;2022-11-23T16:02:30;18.10;;;4.43;;
23988;SDS011;12202;52.136;5.592;2022-11-23T16:05:12;14.77;;;6.00;;
23988;SDS011;12202;52.136;5.592;2022-11-23T16:10:18;12.02;;;5.55;;
23988;SDS011;12202;52.136;5.592;2022-11-23T16:12:46;15.50;;;5.35;;
23988;SDS011;12202;52.136;5.592;2022-11-23T16:18:03;13.65;;;5.40;;
23988;SDS011;12202;52.136;5.592;2022-11-23T16:20:30;19.77;;;5.70;;
23988;SDS011;12202;52.136;5.592;2022-11-23T16:22:57;12.32;;;5.43;;
23988;SDS011;12202;52.136;5.592;2022-11-23T16:25:28;11.43;;;5.95;;
23988;SDS011;12202;52.136;5.592;2022-11-23T16:30:35;26.95;;;7.78;;
23988;SDS011;12202;52.136;5.592;2022-11-23T16:33:01;13.25;;;6.30;;
23988;SDS011;12202;52.136;5.592;2022-11-23T16:35:27;21.33;;;7.07;;
23988;SDS011;12202;52.136;5.592;2022-11-23T16:37:53;13.90;;;6.53;;
23988;SDS011;12202;52.136;5.592;2022-11-23T16:40:19;12.65;;;6.70;;